sensor_id;sensor_type;location;lat;lon;timestamp;pressure;altitude;pressure_sealevel;temperature;humidity
62592;BME280;48659;41.622;2.276;2023-08-01T00:00:45;99584.99;;;28.06;53.50
62592;BME280;48659;41.622;2.276;2023-08-01T00:03:13;99579.04;;;28.39;52.73
62592;BME280;48659;41.622;2.276;2023-08-01T00:05:50;99578.70;;;27.90;53.14
62592;BME280;48659;41.622;2.276;2023-08-01T00:08:17;99578.39;;;28.23;53.06
62592;BME280;48659;41.622;2.276;2023-08-01T00:10:45;99579.93;;;27.97;53.62
62592;BME280;48659;41.622;2.276;2023-08-01T00:13:12;99577.61;;;27.67;54.44
62592;BME280;48659;41.622;2.276;2023-08-01T00:15:40;99576.29;;;27.61;54.25
62592;BME280;48659;41.622;2.276;2023-08-01T00:18:07;99573.87;;;27.25;55.45
62592;BME280;48659;41.622;2.276;2023-08-01T00:20:34;99575.71;;;27.70;53.64
62592;BME280;48659;41.622;2.276;2023-08-01T00:23:02;99571.89;;;27.24;55.21
62592;BME280;48659;41.622;2.276;2023-08-01T00:25:29;99563.42;;;27.87;52.78
62592;BME280;48659;41.622;2.276;2023-08-01T00:27:56;99558.46;;;27.95;53.20
62592;BME280;48659;41.622;2.276;2023-08-01T00:30:24;99557.93;;;27.73;54.06
62592;BME280;48659;41.622;2.276;2023-08-01T00:32:51;99558.65;;;24.78;60.37
62592;BME280;48659;41.622;2.276;2023-08-01T00:35:19;99554.71;;;25.28;60.69
62592;BME280;48659;41.622;2.276;2023-08-01T00:37:49;99554.20;;;25.94;60.06
62592;BME280;48659;41.622;2.276;2023-08-01T00:40:16;99548.83;;;26.36;58.24
62592;BME280;48659;41.622;2.276;2023-08-01T00:42:50;99552.46;;;25.31;61.03
62592;BME280;48659;41.622;2.276;2023-08-01T00:45:18;99550.98;;;25.16;60.39
62592;BME280;48659;41.622;2.276;2023-08-01T00:47:51;99549.57;;;25.31;61.33
62592;BME280;48659;41.622;2.276;2023-08-01T00:50:19;99542.96;;;23.73;64.97
62592;BME280;48659;41.622;2.276;2023-08-01T00:52:46;99545.20;;;25.02;63.78
62592;BME280;48659;41.622;2.276;2023-08-01T00:55:14;99544.65;;;25.41;61.19
62592;BME280;48659;41.622;2.276;2023-08-01T00:57:42;99544.00;;;25.51;60.00
62592;BME280;48659;41.622;2.276;2023-08-01T01:00:11;99547.13;;;24.36;61.66
62592;BME280;48659;41.622;2.276;2023-08-01T01:02:39;99546.49;;;23.46;64.97
62592;BME280;48659;41.622;2.276;2023-08-01T01:05:07;99537.48;;;24.36;63.22
62592;BME280;48659;41.622;2.276;2023-08-01T01:07:35;99532.10;;;23.80;64.06
62592;BME280;48659;41.622;2.276;2023-08-01T01:10:04;99527.66;;;23.90;63.88
62592;BME280;48659;41.622;2.276;2023-08-01T01:12:31;99528.39;;;25.43;60.51
62592;BME280;48659;41.622;2.276;2023-08-01T01:14:59;99526.25;;;23.79;63.05
62592;BME280;48659;41.622;2.276;2023-08-01T01:17:26;99526.34;;;22.82;65.50
62592;BME280;48659;41.622;2.276;2023-08-01T01:19:54;99527.71;;;24.02;65.71
62592;BME280;48659;41.622;2.276;2023-08-01T01:22:21;99527.58;;;22.66;68.76
62592;BME280;48659;41.622;2.276;2023-08-01T01:24:49;99525.69;;;22.74;68.11
62592;BME280;48659;41.622;2.276;2023-08-01T01:27:17;99518.89;;;24.87;61.23
62592;BME280;48659;41.622;2.276;2023-08-01T01:29:45;99520.19;;;24.33;61.03
62592;BME280;48659;41.622;2.276;2023-08-01T01:32:14;99512.92;;;24.19;62.90
62592;BME280;48659;41.622;2.276;2023-08-01T01:34:43;99510.31;;;23.15;66.26
62592;BME280;48659;41.622;2.276;2023-08-01T01:37:11;99496.74;;;24.30;62.92
62592;BME280;48659;41.622;2.276;2023-08-01T01:39:38;99491.98;;;24.45;61.03
62592;BME280;48659;41.622;2.276;2023-08-01T01:42:06;99491.64;;;24.29;61.19
62592;BME280;48659;41.622;2.276;2023-08-01T01:44:34;99491.02;;;23.84;61.83
62592;BME280;48659;41.622;2.276;2023-08-01T01:47:02;99487.20;;;23.83;62.64
62592;BME280;48659;41.622;2.276;2023-08-01T01:49:29;99486.67;;;24.91;61.44
62592;BME280;48659;41.622;2.276;2023-08-01T01:51:57;99481.07;;;25.41;58.00
62592;BME280;48659;41.622;2.276;2023-08-01T01:54:24;99480.01;;;23.87;62.84
62592;BME280;48659;41.622;2.276;2023-08-01T01:56:51;99480.15;;;24.32;61.40
62592;BME280;48659;41.622;2.276;2023-08-01T01:59:19;99473.49;;;23.83;64.81
62592;BME280;48659;41.622;2.276;2023-08-01T02:01:50;99471.60;;;23.95;62.69
62592;BME280;48659;41.622;2.276;2023-08-01T02:04:18;99475.07;;;24.39;60.94
62592;BME280;48659;41.622;2.276;2023-08-01T02:06:45;99475.80;;;24.00;62.91
62592;BME280;48659;41.622;2.276;2023-08-01T02:09:13;99476.72;;;22.84;65.00
62592;BME280;48659;41.622;2.276;2023-08-01T02:11:41;99480.10;;;24.70;59.76
62592;BME280;48659;41.622;2.276;2023-08-01T02:14:08;99478.61;;;24.91;58.72
62592;BME280;48659;41.622;2.276;2023-08-01T02:16:36;99469.89;;;25.97;56.50
62592;BME280;48659;41.622;2.276;2023-08-01T02:19:03;99464.19;;;26.05;55.41
62592;BME280;48659;41.622;2.276;2023-08-01T02:21:31;99460.76;;;26.61;54.64
62592;BME280;48659;41.622;2.276;2023-08-01T02:23:59;99458.58;;;26.95;53.36
62592;BME280;48659;41.622;2.276;2023-08-01T02:26:26;99460.17;;;26.46;53.14
62592;BME280;48659;41.622;2.276;2023-08-01T02:28:53;99462.76;;;26.53;53.12
62592;BME280;48659;41.622;2.276;2023-08-01T02:31:21;99459.88;;;26.92;52.43
62592;BME280;48659;41.622;2.276;2023-08-01T02:33:49;99458.03;;;26.89;52.38
62592;BME280;48659;41.622;2.276;2023-08-01T02:36:16;99455.19;;;27.20;51.61
62592;BME280;48659;41.622;2.276;2023-08-01T02:42:28;99443.05;;;26.70;53.34
62592;BME280;48659;41.622;2.276;2023-08-01T02:44:55;99438.24;;;25.55;55.21
62592;BME280;48659;41.622;2.276;2023-08-01T02:47:22;99437.71;;;26.61;52.36
62592;BME280;48659;41.622;2.276;2023-08-01T02:49:50;99436.86;;;26.09;54.25
62592;BME280;48659;41.622;2.276;2023-08-01T02:52:17;99443.91;;;23.98;58.93
62592;BME280;48659;41.622;2.276;2023-08-01T02:54:44;99443.30;;;24.81;58.31
62592;BME280;48659;41.622;2.276;2023-08-01T02:57:12;99436.65;;;25.85;55.89
62592;BME280;48659;41.622;2.276;2023-08-01T02:59:40;99440.38;;;23.76;60.02
62592;BME280;48659;41.622;2.276;2023-08-01T03:02:07;99437.17;;;25.56;57.13
62592;BME280;48659;41.622;2.276;2023-08-01T03:04:35;99429.87;;;26.24;54.83
62592;BME280;48659;41.622;2.276;2023-08-01T03:07:03;99428.64;;;26.20;53.94
62592;BME280;48659;41.622;2.276;2023-08-01T03:09:30;99436.69;;;24.94;57.61
62592;BME280;48659;41.622;2.276;2023-08-01T03:11:59;99438.28;;;23.25;63.50
62592;BME280;48659;41.622;2.276;2023-08-01T03:14:26;99440.80;;;24.85;59.78
62592;BME280;48659;41.622;2.276;2023-08-01T03:16:54;99435.25;;;25.51;56.94
62592;BME280;48659;41.622;2.276;2023-08-01T03:19:21;99438.82;;;25.38;56.26
62592;BME280;48659;41.622;2.276;2023-08-01T03:21:48;99433.74;;;25.08;56.50
62592;BME280;48659;41.622;2.276;2023-08-01T03:24:16;99426.49;;;25.93;55.27
62592;BME280;48659;41.622;2.276;2023-08-01T03:26:43;99424.44;;;25.76;54.65
62592;BME280;48659;41.622;2.276;2023-08-01T03:29:10;99433.91;;;23.74;59.68
62592;BME280;48659;41.622;2.276;2023-08-01T03:31:37;99430.31;;;25.90;55.21
62592;BME280;48659;41.622;2.276;2023-08-01T03:34:05;99435.09;;;24.05;61.11
62592;BME280;48659;41.622;2.276;2023-08-01T03:36:32;99436.66;;;24.44;59.93
62592;BME280;48659;41.622;2.276;2023-08-01T03:39:00;99440.98;;;24.50;60.22
62592;BME280;48659;41.622;2.276;2023-08-01T03:41:27;99449.04;;;23.08;63.50
62592;BME280;48659;41.622;2.276;2023-08-01T03:43:55;99454.38;;;24.59;59.02
62592;BME280;48659;41.622;2.276;2023-08-01T03:46:23;99456.42;;;24.64;59.67
62592;BME280;48659;41.622;2.276;2023-08-01T03:48:50;99452.90;;;25.34;56.84
62592;BME280;48659;41.622;2.276;2023-08-01T03:51:18;99456.48;;;22.65;63.70
62592;BME280;48659;41.622;2.276;2023-08-01T03:53:49;99461.34;;;21.57;67.49
62592;BME280;48659;41.622;2.276;2023-08-01T03:56:16;99460.45;;;21.39;68.14
62592;BME280;48659;41.622;2.276;2023-08-01T03:58:43;99456.50;;;22.52;65.60
62592;BME280;48659;41.622;2.276;2023-08-01T04:01:10;99454.52;;;22.62;65.05
62592;BME280;48659;41.622;2.276;2023-08-01T04:03:38;99454.98;;;22.52;65.54
62592;BME280;48659;41.622;2.276;2023-08-01T04:06:06;99450.25;;;23.54;62.78
62592;BME280;48659;41.622;2.276;2023-08-01T04:08:33;99452.69;;;22.56;64.54
62592;BME280;48659;41.622;2.276;2023-08-01T04:11:01;99450.99;;;22.79;64.48
62592;BME280;48659;41.622;2.276;2023-08-01T04:13:28;99458.51;;;22.64;66.35
62592;BME280;48659;41.622;2.276;2023-08-01T04:15:56;99455.00;;;23.78;62.67
62592;BME280;48659;41.622;2.276;2023-08-01T04:18:23;99452.02;;;24.23;60.02
62592;BME280;48659;41.622;2.276;2023-08-01T04:20:50;99452.69;;;24.75;58.64
62592;BME280;48659;41.622;2.276;2023-08-01T04:23:18;99455.95;;;24.72;58.00
62592;BME280;48659;41.622;2.276;2023-08-01T04:25:50;99450.54;;;23.18;62.37
62592;BME280;48659;41.622;2.276;2023-08-01T04:28:18;99456.38;;;22.36;66.72
62592;BME280;48659;41.622;2.276;2023-08-01T04:30:49;99454.62;;;23.62;63.37
62592;BME280;48659;41.622;2.276;2023-08-01T04:33:16;99453.03;;;23.02;65.20
62592;BME280;48659;41.622;2.276;2023-08-01T04:35:50;99447.91;;;23.44;63.04
62592;BME280;48659;41.622;2.276;2023-08-01T04:38:18;99453.23;;;24.63;59.83
62592;BME280;48659;41.622;2.276;2023-08-01T04:40:45;99452.38;;;23.76;60.71
62592;BME280;48659;41.622;2.276;2023-08-01T04:43:13;99456.79;;;21.59;68.50
62592;BME280;48659;41.622;2.276;2023-08-01T04:45:40;99449.68;;;22.97;65.70
62592;BME280;48659;41.622;2.276;2023-08-01T04:48:07;99445.21;;;24.15;61.53
62592;BME280;48659;41.622;2.276;2023-08-01T04:50:35;99448.47;;;24.77;58.34
62592;BME280;48659;41.622;2.276;2023-08-01T04:53:03;99441.91;;;25.26;56.62
62592;BME280;48659;41.622;2.276;2023-08-01T04:55:30;99437.71;;;26.02;55.11
62592;BME280;48659;41.622;2.276;2023-08-01T04:57:58;99439.28;;;26.44;53.08
62592;BME280;48659;41.622;2.276;2023-08-01T05:00:25;99438.45;;;26.91;52.33
62592;BME280;48659;41.622;2.276;2023-08-01T05:02:53;99437.87;;;26.76;52.44
62592;BME280;48659;41.622;2.276;2023-08-01T05:05:21;99439.63;;;26.57;52.74
62592;BME280;48659;41.622;2.276;2023-08-01T05:07:48;99448.93;;;25.25;55.94
62592;BME280;48659;41.622;2.276;2023-08-01T05:10:15;99451.88;;;25.00;56.37
62592;BME280;48659;41.622;2.276;2023-08-01T05:12:42;99449.86;;;26.56;53.11
62592;BME280;48659;41.622;2.276;2023-08-01T05:15:10;99461.65;;;24.61;56.97
62592;BME280;48659;41.622;2.276;2023-08-01T05:17:37;99458.45;;;22.14;64.57
62592;BME280;48659;41.622;2.276;2023-08-01T05:20:06;99450.04;;;24.23;57.69
62592;BME280;48659;41.622;2.276;2023-08-01T05:22:33;99450.81;;;24.12;57.02
62592;BME280;48659;41.622;2.276;2023-08-01T05:25:00;99454.74;;;23.90;57.43
62592;BME280;48659;41.622;2.276;2023-08-01T05:27:27;99455.25;;;24.61;57.18
62592;BME280;48659;41.622;2.276;2023-08-01T05:29:54;99451.44;;;23.87;58.67
62592;BME280;48659;41.622;2.276;2023-08-01T05:32:22;99447.63;;;24.91;55.47
62592;BME280;48659;41.622;2.276;2023-08-01T05:34:49;99444.16;;;23.37;59.55
62592;BME280;48659;41.622;2.276;2023-08-01T05:37:16;99441.16;;;25.20;54.80
62592;BME280;48659;41.622;2.276;2023-08-01T05:39:44;99443.33;;;24.12;56.69
62592;BME280;48659;41.622;2.276;2023-08-01T05:42:11;99442.00;;;24.23;56.72
62592;BME280;48659;41.622;2.276;2023-08-01T05:44:39;99445.59;;;24.56;55.79
62592;BME280;48659;41.622;2.276;2023-08-01T05:47:07;99450.06;;;24.19;55.83
62592;BME280;48659;41.622;2.276;2023-08-01T05:49:34;99454.28;;;23.84;58.60
62592;BME280;48659;41.622;2.276;2023-08-01T05:52:01;99456.19;;;22.76;62.28
62592;BME280;48659;41.622;2.276;2023-08-01T05:54:29;99457.57;;;24.40;58.02
62592;BME280;48659;41.622;2.276;2023-08-01T05:56:57;99463.25;;;23.20;61.32
62592;BME280;48659;41.622;2.276;2023-08-01T05:59:25;99467.22;;;22.19;64.67
62592;BME280;48659;41.622;2.276;2023-08-01T06:01:52;99470.70;;;22.04;65.73
62592;BME280;48659;41.622;2.276;2023-08-01T06:04:19;99470.00;;;22.51;64.12
62592;BME280;48659;41.622;2.276;2023-08-01T06:06:47;99466.12;;;23.89;59.97
62592;BME280;48659;41.622;2.276;2023-08-01T06:09:14;99470.00;;;24.21;58.38
62592;BME280;48659;41.622;2.276;2023-08-01T06:11:42;99473.23;;;24.76;57.08
62592;BME280;48659;41.622;2.276;2023-08-01T06:14:09;99470.75;;;23.32;59.30
62592;BME280;48659;41.622;2.276;2023-08-01T06:16:37;99468.41;;;24.45;57.65
62592;BME280;48659;41.622;2.276;2023-08-01T06:19:04;99460.76;;;26.12;53.81
62592;BME280;48659;41.622;2.276;2023-08-01T06:21:31;99460.10;;;26.46;52.16
62592;BME280;48659;41.622;2.276;2023-08-01T06:23:59;99460.29;;;27.38;50.02
62592;BME280;48659;41.622;2.276;2023-08-01T06:26:26;99459.94;;;27.78;48.53
62592;BME280;48659;41.622;2.276;2023-08-01T06:28:54;99463.24;;;27.56;47.95
62592;BME280;48659;41.622;2.276;2023-08-01T06:31:21;99462.84;;;27.57;48.92
62592;BME280;48659;41.622;2.276;2023-08-01T06:33:49;99466.20;;;25.35;53.73
62592;BME280;48659;41.622;2.276;2023-08-01T06:36:17;99463.56;;;26.97;51.25
62592;BME280;48659;41.622;2.276;2023-08-01T06:38:44;99462.61;;;26.70;50.81
62592;BME280;48659;41.622;2.276;2023-08-01T06:41:12;99457.12;;;28.03;48.53
62592;BME280;48659;41.622;2.276;2023-08-01T06:43:40;99453.30;;;28.58;47.22
62592;BME280;48659;41.622;2.276;2023-08-01T06:46:07;99457.91;;;29.07;45.78
62592;BME280;48659;41.622;2.276;2023-08-01T06:48:35;99457.77;;;28.54;45.91
62592;BME280;48659;41.622;2.276;2023-08-01T06:51:02;99460.90;;;29.10;44.54
62592;BME280;48659;41.622;2.276;2023-08-01T06:53:30;99464.30;;;29.03;44.86
62592;BME280;48659;41.622;2.276;2023-08-01T06:55:57;99455.11;;;30.14;42.68
62592;BME280;48659;41.622;2.276;2023-08-01T06:58:24;99447.25;;;30.42;42.60
62592;BME280;48659;41.622;2.276;2023-08-01T07:00:51;99450.42;;;30.31;42.13
62592;BME280;48659;41.622;2.276;2023-08-01T07:03:20;99463.10;;;28.03;45.85
62592;BME280;48659;41.622;2.276;2023-08-01T07:05:47;99464.74;;;29.40;43.89
62592;BME280;48659;41.622;2.276;2023-08-01T07:08:14;99466.58;;;26.73;49.53
62592;BME280;48659;41.622;2.276;2023-08-01T07:10:42;99465.62;;;25.89;51.48
62592;BME280;48659;41.622;2.276;2023-08-01T07:13:09;99457.82;;;28.20;47.71
62592;BME280;48659;41.622;2.276;2023-08-01T07:15:36;99454.58;;;28.48;46.11
62592;BME280;48659;41.622;2.276;2023-08-01T07:18:04;99452.73;;;29.13;44.41
62592;BME280;48659;41.622;2.276;2023-08-01T07:20:31;99448.59;;;28.78;45.48
62592;BME280;48659;41.622;2.276;2023-08-01T07:22:58;99444.33;;;27.77;46.92
62592;BME280;48659;41.622;2.276;2023-08-01T07:25:26;99450.89;;;28.65;45.60
62592;BME280;48659;41.622;2.276;2023-08-01T07:27:53;99455.07;;;28.12;46.95
62592;BME280;48659;41.622;2.276;2023-08-01T07:30:20;99463.22;;;28.02;46.88
62592;BME280;48659;41.622;2.276;2023-08-01T07:32:48;99463.00;;;28.95;45.38
62592;BME280;48659;41.622;2.276;2023-08-01T07:35:16;99459.21;;;27.94;46.83
62592;BME280;48659;41.622;2.276;2023-08-01T07:37:43;99459.64;;;27.81;47.95
62592;BME280;48659;41.622;2.276;2023-08-01T07:40:10;99462.77;;;29.48;44.30
62592;BME280;48659;41.622;2.276;2023-08-01T07:42:38;99462.57;;;29.23;44.26
62592;BME280;48659;41.622;2.276;2023-08-01T07:45:06;99461.26;;;30.09;42.97
62592;BME280;48659;41.622;2.276;2023-08-01T07:47:34;99458.70;;;30.15;42.75
62592;BME280;48659;41.622;2.276;2023-08-01T07:50:01;99454.11;;;30.50;41.95
62592;BME280;48659;41.622;2.276;2023-08-01T07:52:28;99455.81;;;30.21;42.43
62592;BME280;48659;41.622;2.276;2023-08-01T07:54:56;99453.47;;;30.03;42.68
62592;BME280;48659;41.622;2.276;2023-08-01T07:57:23;99443.57;;;30.30;42.35
62592;BME280;48659;41.622;2.276;2023-08-01T07:59:51;99438.00;;;29.96;42.40
62592;BME280;48659;41.622;2.276;2023-08-01T08:02:18;99435.29;;;30.68;40.74
62592;BME280;48659;41.622;2.276;2023-08-01T08:04:51;99440.96;;;28.33;44.79
62592;BME280;48659;41.622;2.276;2023-08-01T08:07:18;99440.67;;;27.52;47.22
62592;BME280;48659;41.622;2.276;2023-08-01T08:09:45;99446.16;;;29.50;43.18
62592;BME280;48659;41.622;2.276;2023-08-01T08:12:12;99449.06;;;30.40;40.61
62592;BME280;48659;41.622;2.276;2023-08-01T08:14:40;99453.05;;;29.00;42.45
62592;BME280;48659;41.622;2.276;2023-08-01T08:17:07;99454.58;;;26.42;48.03
62592;BME280;48659;41.622;2.276;2023-08-01T08:19:35;99450.07;;;28.26;45.58
62592;BME280;48659;41.622;2.276;2023-08-01T08:22:02;99453.68;;;27.68;45.87
62592;BME280;48659;41.622;2.276;2023-08-01T08:24:29;99452.93;;;28.27;45.38
62592;BME280;48659;41.622;2.276;2023-08-01T08:26:57;99453.77;;;27.74;45.76
62592;BME280;48659;41.622;2.276;2023-08-01T08:29:25;99450.87;;;27.98;45.79
62592;BME280;48659;41.622;2.276;2023-08-01T08:31:52;99455.49;;;29.22;42.29
62592;BME280;48659;41.622;2.276;2023-08-01T08:34:20;99450.76;;;28.72;42.84
62592;BME280;48659;41.622;2.276;2023-08-01T08:36:47;99447.25;;;29.84;41.40
62592;BME280;48659;41.622;2.276;2023-08-01T08:39:14;99449.16;;;30.04;41.15
62592;BME280;48659;41.622;2.276;2023-08-01T08:41:46;99451.98;;;29.08;43.57
62592;BME280;48659;41.622;2.276;2023-08-01T08:44:15;99449.05;;;28.92;43.18
62592;BME280;48659;41.622;2.276;2023-08-01T08:46:44;99445.99;;;29.24;41.70
62592;BME280;48659;41.622;2.276;2023-08-01T08:49:11;99444.71;;;29.46;41.49
62592;BME280;48659;41.622;2.276;2023-08-01T08:51:39;99445.95;;;27.59;45.17
62592;BME280;48659;41.622;2.276;2023-08-01T08:54:07;99443.46;;;28.38;44.70
62592;BME280;48659;41.622;2.276;2023-08-01T08:56:35;99440.00;;;29.45;42.68
62592;BME280;48659;41.622;2.276;2023-08-01T08:59:02;99443.54;;;28.62;43.76
62592;BME280;48659;41.622;2.276;2023-08-01T09:01:31;99438.08;;;29.16;42.24
62592;BME280;48659;41.622;2.276;2023-08-01T09:04:00;99432.67;;;29.95;40.31
62592;BME280;48659;41.622;2.276;2023-08-01T09:06:30;99435.56;;;27.75;46.07
62592;BME280;48659;41.622;2.276;2023-08-01T09:09:03;99427.37;;;29.89;41.71
62592;BME280;48659;41.622;2.276;2023-08-01T09:11:39;99427.92;;;29.93;41.94
62592;BME280;48659;41.622;2.276;2023-08-01T09:14:07;99432.19;;;29.19;43.13
62592;BME280;48659;41.622;2.276;2023-08-01T09:16:35;99426.03;;;30.35;40.81
62592;BME280;48659;41.622;2.276;2023-08-01T09:19:03;99425.40;;;30.84;40.15
62592;BME280;48659;41.622;2.276;2023-08-01T09:21:33;99432.19;;;29.34;42.27
62592;BME280;48659;41.622;2.276;2023-08-01T09:24:08;99425.06;;;30.85;39.90
62592;BME280;48659;41.622;2.276;2023-08-01T09:26:36;99425.90;;;30.42;40.09
62592;BME280;48659;41.622;2.276;2023-08-01T09:29:03;99420.53;;;29.76;40.89
62592;BME280;48659;41.622;2.276;2023-08-01T09:31:32;99425.31;;;29.24;42.04
62592;BME280;48659;41.622;2.276;2023-08-01T09:34:00;99422.91;;;29.84;40.81
62592;BME280;48659;41.622;2.276;2023-08-01T09:36:27;99421.47;;;30.18;39.86
62592;BME280;48659;41.622;2.276;2023-08-01T09:38:58;99423.20;;;30.63;39.75
62592;BME280;48659;41.622;2.276;2023-08-01T09:41:26;99425.86;;;30.67;39.86
62592;BME280;48659;41.622;2.276;2023-08-01T09:43:53;99426.90;;;30.60;39.84
62592;BME280;48659;41.622;2.276;2023-08-01T09:46:21;99424.57;;;30.83;40.05
62592;BME280;48659;41.622;2.276;2023-08-01T09:48:50;99418.89;;;29.94;41.07
62592;BME280;48659;41.622;2.276;2023-08-01T09:51:18;99415.30;;;30.11;41.17
62592;BME280;48659;41.622;2.276;2023-08-01T09:53:51;99409.88;;;31.76;38.12
62592;BME280;48659;41.622;2.276;2023-08-01T09:56:20;99417.79;;;31.55;38.44
62592;BME280;48659;41.622;2.276;2023-08-01T09:58:48;99413.17;;;29.99;38.96
62592;BME280;48659;41.622;2.276;2023-08-01T10:01:19;99415.30;;;31.19;38.26
62592;BME280;48659;41.622;2.276;2023-08-01T10:03:47;99404.74;;;31.48;36.84
62592;BME280;48659;41.622;2.276;2023-08-01T10:06:19;99397.21;;;32.29;35.85
62592;BME280;48659;41.622;2.276;2023-08-01T10:08:47;99397.53;;;32.21;36.41
62592;BME280;48659;41.622;2.276;2023-08-01T10:11:18;99402.70;;;30.45;39.10
62592;BME280;48659;41.622;2.276;2023-08-01T10:13:47;99403.21;;;31.38;37.64
62592;BME280;48659;41.622;2.276;2023-08-01T10:16:16;99398.18;;;30.68;38.84
62592;BME280;48659;41.622;2.276;2023-08-01T10:18:43;99404.92;;;29.49;41.91
62592;BME280;48659;41.622;2.276;2023-08-01T10:21:14;99396.02;;;30.62;40.15
62592;BME280;48659;41.622;2.276;2023-08-01T10:23:43;99401.79;;;30.05;40.21
62592;BME280;48659;41.622;2.276;2023-08-01T10:26:13;99389.27;;;30.74;38.38
62592;BME280;48659;41.622;2.276;2023-08-01T10:28:49;99389.81;;;31.10;37.72
62592;BME280;48659;41.622;2.276;2023-08-01T10:31:18;99390.95;;;30.84;37.82
62592;BME280;48659;41.622;2.276;2023-08-01T10:33:50;99383.66;;;31.59;36.83
62592;BME280;48659;41.622;2.276;2023-08-01T10:36:19;99383.10;;;31.46;37.20
62592;BME280;48659;41.622;2.276;2023-08-01T10:38:49;99382.70;;;31.03;37.37
62592;BME280;48659;41.622;2.276;2023-08-01T10:41:26;99380.86;;;32.70;35.11
62592;BME280;48659;41.622;2.276;2023-08-01T10:44:05;99377.41;;;32.39;34.65
62592;BME280;48659;41.622;2.276;2023-08-01T10:46:52;99373.38;;;33.04;34.02
62592;BME280;48659;41.622;2.276;2023-08-01T10:49:33;99367.10;;;32.07;36.96
62592;BME280;48659;41.622;2.276;2023-08-01T10:52:00;99375.54;;;30.91;42.04
62592;BME280;48659;41.622;2.276;2023-08-01T10:54:28;99363.20;;;31.14;41.35
62592;BME280;48659;41.622;2.276;2023-08-01T10:56:57;99357.57;;;31.80;40.23
62592;BME280;48659;41.622;2.276;2023-08-01T10:59:24;99356.50;;;31.36;40.43
62592;BME280;48659;41.622;2.276;2023-08-01T11:01:53;99358.29;;;30.74;41.30
62592;BME280;48659;41.622;2.276;2023-08-01T11:04:22;99360.26;;;30.45;42.41
62592;BME280;48659;41.622;2.276;2023-08-01T11:06:51;99354.46;;;31.61;40.50
62592;BME280;48659;41.622;2.276;2023-08-01T11:09:21;99350.82;;;30.09;43.05
62592;BME280;48659;41.622;2.276;2023-08-01T11:11:53;99344.87;;;30.69;42.54
62592;BME280;48659;41.622;2.276;2023-08-01T11:14:20;99346.85;;;30.96;42.83
62592;BME280;48659;41.622;2.276;2023-08-01T11:16:49;99341.55;;;30.96;42.83
62592;BME280;48659;41.622;2.276;2023-08-01T11:19:18;99333.51;;;30.86;43.16
62592;BME280;48659;41.622;2.276;2023-08-01T11:21:46;99338.55;;;30.55;44.43
62592;BME280;48659;41.622;2.276;2023-08-01T11:24:13;99336.02;;;29.24;47.93
62592;BME280;48659;41.622;2.276;2023-08-01T11:26:43;99332.27;;;29.28;48.34
62592;BME280;48659;41.622;2.276;2023-08-01T11:29:11;99325.99;;;29.87;47.85
62592;BME280;48659;41.622;2.276;2023-08-01T11:31:40;99332.83;;;29.19;49.17
62592;BME280;48659;41.622;2.276;2023-08-01T11:34:08;99332.51;;;29.48;48.31
62592;BME280;48659;41.622;2.276;2023-08-01T11:36:36;99326.01;;;29.51;47.84
62592;BME280;48659;41.622;2.276;2023-08-01T11:39:04;99328.79;;;29.38;48.11
62592;BME280;48659;41.622;2.276;2023-08-01T11:41:31;99325.86;;;28.35;50.44
62592;BME280;48659;41.622;2.276;2023-08-01T11:44:02;99324.61;;;28.28;51.20
62592;BME280;48659;41.622;2.276;2023-08-01T11:46:31;99324.62;;;28.51;50.32
62592;BME280;48659;41.622;2.276;2023-08-01T11:48:59;99323.52;;;28.45;50.61
62592;BME280;48659;41.622;2.276;2023-08-01T11:51:27;99313.51;;;28.67;49.20
62592;BME280;48659;41.622;2.276;2023-08-01T11:54:03;99310.18;;;28.66;49.93
62592;BME280;48659;41.622;2.276;2023-08-01T11:56:31;99305.78;;;29.09;48.04
62592;BME280;48659;41.622;2.276;2023-08-01T11:58:58;99308.78;;;28.88;48.20
62592;BME280;48659;41.622;2.276;2023-08-01T12:01:26;99310.20;;;29.99;46.32
62592;BME280;48659;41.622;2.276;2023-08-01T12:03:54;99307.97;;;29.47;46.64
62592;BME280;48659;41.622;2.276;2023-08-01T12:06:23;99309.98;;;28.87;48.51
62592;BME280;48659;41.622;2.276;2023-08-01T12:08:52;99313.29;;;28.99;48.97
62592;BME280;48659;41.622;2.276;2023-08-01T12:11:20;99307.35;;;28.08;51.35
62592;BME280;48659;41.622;2.276;2023-08-01T12:13:48;99309.34;;;28.72;50.35
62592;BME280;48659;41.622;2.276;2023-08-01T12:16:26;99312.16;;;28.17;51.92
62592;BME280;48659;41.622;2.276;2023-08-01T12:18:54;99303.60;;;28.26;51.65
62592;BME280;48659;41.622;2.276;2023-08-01T12:21:21;99307.48;;;28.29;51.29
62592;BME280;48659;41.622;2.276;2023-08-01T12:23:49;99308.89;;;27.71;51.62
62592;BME280;48659;41.622;2.276;2023-08-01T12:26:17;99301.28;;;27.62;52.52
62592;BME280;48659;41.622;2.276;2023-08-01T12:28:44;99299.66;;;28.01;51.71
62592;BME280;48659;41.622;2.276;2023-08-01T12:31:16;99295.65;;;29.07;49.56
62592;BME280;48659;41.622;2.276;2023-08-01T12:33:43;99286.59;;;29.06;48.31
62592;BME280;48659;41.622;2.276;2023-08-01T12:36:10;99290.15;;;29.23;47.09
62592;BME280;48659;41.622;2.276;2023-08-01T12:38:39;99292.29;;;29.51;45.88
62592;BME280;48659;41.622;2.276;2023-08-01T12:41:06;99294.91;;;30.10;44.91
62592;BME280;48659;41.622;2.276;2023-08-01T12:43:33;99295.96;;;31.19;42.96
62592;BME280;48659;41.622;2.276;2023-08-01T12:46:01;99301.45;;;29.69;46.43
62592;BME280;48659;41.622;2.276;2023-08-01T12:48:29;99298.47;;;28.69;50.20
62592;BME280;48659;41.622;2.276;2023-08-01T12:50:56;99291.60;;;28.05;52.09
62592;BME280;48659;41.622;2.276;2023-08-01T12:53:23;99291.50;;;28.24;52.18
62592;BME280;48659;41.622;2.276;2023-08-01T12:55:52;99289.34;;;28.07;52.18
62592;BME280;48659;41.622;2.276;2023-08-01T12:58:19;99294.13;;;27.66;53.29
62592;BME280;48659;41.622;2.276;2023-08-01T13:00:47;99288.21;;;27.36;54.71
62592;BME280;48659;41.622;2.276;2023-08-01T13:03:14;99289.84;;;27.70;53.95
62592;BME280;48659;41.622;2.276;2023-08-01T13:05:42;99292.15;;;27.98;53.23
62592;BME280;48659;41.622;2.276;2023-08-01T13:08:10;99295.06;;;28.13;52.24